sensor_id;sensor_type;location;lat;lon;timestamp;pressure;altitude;pressure_sealevel;temperature;humidity
41886;BME280;27567;43.084;25.616;2023-04-19T00:01:55;97787.78;;;8.04;100.00
41886;BME280;27567;43.084;25.616;2023-04-19T00:04:40;97789.78;;;7.95;100.00
41886;BME280;27567;43.084;25.616;2023-04-19T00:07:24;97781.38;;;7.98;100.00
41886;BME280;27567;43.084;25.616;2023-04-19T00:10:08;97776.03;;;7.92;100.00
41886;BME280;27567;43.084;25.616;2023-04-19T00:12:52;97777.00;;;7.84;100.00
41886;BME280;27567;43.084;25.616;2023-04-19T00:15:36;97774.59;;;7.96;100.00
41886;BME280;27567;43.084;25.616;2023-04-19T00:18:21;97772.31;;;7.93;100.00
41886;BME280;27567;43.084;25.616;2023-04-19T00:21:05;97783.41;;;7.90;100.00
41886;BME280;27567;43.084;25.616;2023-04-19T00:23:49;97775.00;;;7.93;100.00
41886;BME280;27567;43.084;25.616;2023-04-19T00:26:33;97771.06;;;7.89;100.00
41886;BME280;27567;43.084;25.616;2023-04-19T00:29:17;97768.00;;;7.92;100.00
41886;BME280;27567;43.084;25.616;2023-04-19T00:32:01;97770.19;;;7.75;100.00
41886;BME280;27567;43.084;25.616;2023-04-19T00:34:47;97768.75;;;7.72;100.00
41886;BME280;27567;43.084;25.616;2023-04-19T00:37:30;97766.69;;;7.74;100.00
41886;BME280;27567;43.084;25.616;2023-04-19T00:40:14;97765.66;;;7.69;100.00
41886;BME280;27567;43.084;25.616;2023-04-19T00:42:59;97766.03;;;7.65;100.00
41886;BME280;27567;43.084;25.616;2023-04-19T00:45:43;97759.91;;;7.72;100.00
41886;BME280;27567;43.084;25.616;2023-04-19T00:48:28;97763.41;;;7.72;100.00
41886;BME280;27567;43.084;25.616;2023-04-19T00:51:12;97765.84;;;7.67;100.00
41886;BME280;27567;43.084;25.616;2023-04-19T00:53:56;97766.47;;;7.69;100.00
41886;BME280;27567;43.084;25.616;2023-04-19T00:56:40;97762.13;;;7.61;100.00
41886;BME280;27567;43.084;25.616;2023-04-19T00:59:25;97764.38;;;7.58;100.00
41886;BME280;27567;43.084;25.616;2023-04-19T01:02:09;97761.22;;;7.47;100.00
41886;BME280;27567;43.084;25.616;2023-04-19T01:04:53;97756.41;;;7.64;100.00
41886;BME280;27567;43.084;25.616;2023-04-19T01:07:38;97761.25;;;7.54;100.00
41886;BME280;27567;43.084;25.616;2023-04-19T01:10:21;97747.66;;;7.49;100.00
41886;BME280;27567;43.084;25.616;2023-04-19T01:13:05;97747.28;;;7.52;100.00
41886;BME280;27567;43.084;25.616;2023-04-19T01:15:49;97756.75;;;7.55;100.00
41886;BME280;27567;43.084;25.616;2023-04-19T01:18:34;97742.53;;;7.47;100.00
41886;BME280;27567;43.084;25.616;2023-04-19T01:21:20;97751.41;;;7.55;100.00
41886;BME280;27567;43.084;25.616;2023-04-19T01:24:05;97753.69;;;7.58;100.00
41886;BME280;27567;43.084;25.616;2023-04-19T01:26:49;97748.13;;;7.52;100.00
41886;BME280;27567;43.084;25.616;2023-04-19T01:29:33;97747.50;;;7.50;100.00
41886;BME280;27567;43.084;25.616;2023-04-19T01:32:17;97735.59;;;7.53;100.00
41886;BME280;27567;43.084;25.616;2023-04-19T01:35:01;97738.03;;;7.48;100.00
41886;BME280;27567;43.084;25.616;2023-04-19T01:37:44;97742.13;;;7.44;100.00
41886;BME280;27567;43.084;25.616;2023-04-19T01:40:29;97735.56;;;7.46;100.00
41886;BME280;27567;43.084;25.616;2023-04-19T01:43:15;97742.97;;;7.51;100.00
41886;BME280;27567;43.084;25.616;2023-04-19T01:46:00;97739.03;;;7.47;100.00
41886;BME280;27567;43.084;25.616;2023-04-19T01:48:44;97732.66;;;7.41;100.00
41886;BME280;27567;43.084;25.616;2023-04-19T01:51:28;97736.44;;;7.54;100.00
41886;BME280;27567;43.084;25.616;2023-04-19T01:54:12;97736.38;;;7.47;100.00
41886;BME280;27567;43.084;25.616;2023-04-19T01:57:01;97732.91;;;7.46;100.00
41886;BME280;27567;43.084;25.616;2023-04-19T01:59:45;97732.69;;;7.48;100.00
41886;BME280;27567;43.084;25.616;2023-04-19T02:02:29;97736.16;;;7.42;100.00
41886;BME280;27567;43.084;25.616;2023-04-19T02:05:14;97726.91;;;7.37;100.00
41886;BME280;27567;43.084;25.616;2023-04-19T02:07:58;97740.25;;;7.44;100.00
41886;BME280;27567;43.084;25.616;2023-04-19T02:10:43;97733.69;;;7.47;100.00
41886;BME280;27567;43.084;25.616;2023-04-19T02:13:27;97734.69;;;7.39;100.00
41886;BME280;27567;43.084;25.616;2023-04-19T02:16:12;97735.16;;;7.49;100.00
41886;BME280;27567;43.084;25.616;2023-04-19T02:18:56;97733.94;;;7.52;100.00
41886;BME280;27567;43.084;25.616;2023-04-19T02:21:40;97739.22;;;7.39;100.00
41886;BME280;27567;43.084;25.616;2023-04-19T02:24:24;97738.19;;;7.40;100.00
41886;BME280;27567;43.084;25.616;2023-04-19T02:27:08;97731.47;;;7.44;100.00
41886;BME280;27567;43.084;25.616;2023-04-19T02:29:52;97736.97;;;7.42;100.00
41886;BME280;27567;43.084;25.616;2023-04-19T02:32:36;97748.31;;;7.51;100.00
41886;BME280;27567;43.084;25.616;2023-04-19T02:35:20;97745.44;;;7.52;100.00
41886;BME280;27567;43.084;25.616;2023-04-19T02:38:04;97744.03;;;7.57;100.00
41886;BME280;27567;43.084;25.616;2023-04-19T02:40:48;97744.66;;;7.59;100.00
41886;BME280;27567;43.084;25.616;2023-04-19T02:43:32;97739.25;;;7.45;100.00
41886;BME280;27567;43.084;25.616;2023-04-19T02:46:16;97743.84;;;7.58;100.00
41886;BME280;27567;43.084;25.616;2023-04-19T02:49:00;97737.63;;;7.51;100.00
41886;BME280;27567;43.084;25.616;2023-04-19T02:51:44;97736.81;;;7.50;100.00
41886;BME280;27567;43.084;25.616;2023-04-19T02:54:28;97731.66;;;7.49;100.00
41886;BME280;27567;43.084;25.616;2023-04-19T02:57:12;97737.22;;;7.47;100.00
41886;BME280;27567;43.084;25.616;2023-04-19T02:59:56;97736.94;;;7.35;100.00
41886;BME280;27567;43.084;25.616;2023-04-19T03:02:42;97737.31;;;7.32;100.00
41886;BME280;27567;43.084;25.616;2023-04-19T03:05:26;97736.72;;;7.37;100.00
41886;BME280;27567;43.084;25.616;2023-04-19T03:08:10;97737.28;;;7.26;100.00
41886;BME280;27567;43.084;25.616;2023-04-19T03:10:54;97734.59;;;7.19;100.00
41886;BME280;27567;43.084;25.616;2023-04-19T03:13:38;97734.88;;;7.31;100.00
41886;BME280;27567;43.084;25.616;2023-04-19T03:16:23;97741.31;;;7.15;100.00
41886;BME280;27567;43.084;25.616;2023-04-19T03:19:07;97732.44;;;7.07;100.00
41886;BME280;27567;43.084;25.616;2023-04-19T03:21:51;97738.31;;;7.25;100.00
41886;BME280;27567;43.084;25.616;2023-04-19T03:24:35;97740.34;;;7.22;100.00
41886;BME280;27567;43.084;25.616;2023-04-19T03:27:19;97745.34;;;7.04;100.00
41886;BME280;27567;43.084;25.616;2023-04-19T03:30:03;97746.16;;;7.04;100.00
41886;BME280;27567;43.084;25.616;2023-04-19T03:32:48;97742.28;;;7.07;100.00
41886;BME280;27567;43.084;25.616;2023-04-19T03:35:32;97749.19;;;7.01;100.00
41886;BME280;27567;43.084;25.616;2023-04-19T03:38:15;97746.31;;;6.96;100.00
41886;BME280;27567;43.084;25.616;2023-04-19T03:40:59;97742.66;;;7.04;100.00
41886;BME280;27567;43.084;25.616;2023-04-19T03:47:24;97740.19;;;7.02;100.00
41886;BME280;27567;43.084;25.616;2023-04-19T03:50:09;97736.88;;;7.00;100.00
41886;BME280;27567;43.084;25.616;2023-04-19T03:52:53;97733.91;;;6.88;100.00
41886;BME280;27567;43.084;25.616;2023-04-19T03:55:37;97742.63;;;6.97;100.00
41886;BME280;27567;43.084;25.616;2023-04-19T03:58:22;97736.84;;;6.94;100.00
41886;BME280;27567;43.084;25.616;2023-04-19T04:01:06;97743.22;;;6.99;100.00
41886;BME280;27567;43.084;25.616;2023-04-19T04:03:51;97740.56;;;6.99;100.00
41886;BME280;27567;43.084;25.616;2023-04-19T04:06:36;97746.31;;;6.96;100.00
41886;BME280;27567;43.084;25.616;2023-04-19T04:09:20;97735.81;;;6.95;100.00
41886;BME280;27567;43.084;25.616;2023-04-19T04:12:04;97747.97;;;6.97;100.00
41886;BME280;27567;43.084;25.616;2023-04-19T04:14:49;97751.44;;;6.98;100.00
41886;BME280;27567;43.084;25.616;2023-04-19T04:17:32;97747.50;;;6.94;100.00
41886;BME280;27567;43.084;25.616;2023-04-19T04:20:16;97743.59;;;7.18;100.00
41886;BME280;27567;43.084;25.616;2023-04-19T04:23:00;97745.16;;;7.12;100.00
41886;BME280;27567;43.084;25.616;2023-04-19T04:25:45;97742.91;;;7.09;100.00
41886;BME280;27567;43.084;25.616;2023-04-19T04:28:30;97744.06;;;7.28;100.00
41886;BME280;27567;43.084;25.616;2023-04-19T04:31:15;97747.69;;;7.20;100.00
41886;BME280;27567;43.084;25.616;2023-04-19T04:34:02;97744.84;;;7.22;100.00
41886;BME280;27567;43.084;25.616;2023-04-19T04:36:46;97747.94;;;7.26;100.00
41886;BME280;27567;43.084;25.616;2023-04-19T04:39:32;97745.47;;;7.24;100.00
41886;BME280;27567;43.084;25.616;2023-04-19T04:42:21;97747.44;;;7.15;100.00
41886;BME280;27567;43.084;25.616;2023-04-19T04:45:08;97750.00;;;6.95;100.00
41886;BME280;27567;43.084;25.616;2023-04-19T04:47:53;97746.59;;;6.86;100.00
41886;BME280;27567;43.084;25.616;2023-04-19T04:50:38;97743.34;;;6.84;100.00
41886;BME280;27567;43.084;25.616;2023-04-19T04:53:25;97764.75;;;6.98;100.00
41886;BME280;27567;43.084;25.616;2023-04-19T04:56:09;97750.75;;;6.89;100.00
41886;BME280;27567;43.084;25.616;2023-04-19T04:58:53;97765.91;;;7.10;100.00
41886;BME280;27567;43.084;25.616;2023-04-19T05:01:37;97760.19;;;6.91;100.00
41886;BME280;27567;43.084;25.616;2023-04-19T05:04:21;97767.69;;;6.81;100.00
41886;BME280;27567;43.084;25.616;2023-04-19T05:07:05;97761.53;;;6.81;100.00
41886;BME280;27567;43.084;25.616;2023-04-19T05:09:49;97757.59;;;6.76;100.00
41886;BME280;27567;43.084;25.616;2023-04-19T05:12:33;97761.09;;;6.77;100.00
41886;BME280;27567;43.084;25.616;2023-04-19T05:15:17;97760.91;;;6.79;100.00
41886;BME280;27567;43.084;25.616;2023-04-19T05:18:01;97766.38;;;6.70;100.00
41886;BME280;27567;43.084;25.616;2023-04-19T05:20:45;97758.72;;;6.60;100.00
41886;BME280;27567;43.084;25.616;2023-04-19T05:23:29;97774.81;;;6.74;100.00
41886;BME280;27567;43.084;25.616;2023-04-19T05:26:14;97784.06;;;6.78;100.00
41886;BME280;27567;43.084;25.616;2023-04-19T05:29:00;97770.06;;;6.69;100.00
41886;BME280;27567;43.084;25.616;2023-04-19T05:31:44;97779.53;;;6.79;100.00
41886;BME280;27567;43.084;25.616;2023-04-19T05:34:29;97784.38;;;6.90;100.00
41886;BME280;27567;43.084;25.616;2023-04-19T05:37:13;97769.84;;;6.92;100.00
41886;BME280;27567;43.084;25.616;2023-04-19T05:39:58;97789.44;;;6.85;100.00
41886;BME280;27567;43.084;25.616;2023-04-19T05:42:41;97794.25;;;6.74;100.00
41886;BME280;27567;43.084;25.616;2023-04-19T05:45:26;97787.78;;;6.84;100.00
41886;BME280;27567;43.084;25.616;2023-04-19T05:48:10;97789.50;;;6.91;100.00
41886;BME280;27567;43.084;25.616;2023-04-19T05:50:54;97793.63;;;6.94;100.00
41886;BME280;27567;43.084;25.616;2023-04-19T05:53:40;97786.03;;;6.69;100.00
41886;BME280;27567;43.084;25.616;2023-04-19T05:56:24;97788.38;;;6.79;100.00
41886;BME280;27567;43.084;25.616;2023-04-19T05:59:08;97789.81;;;6.82;100.00
41886;BME280;27567;43.084;25.616;2023-04-19T06:01:54;97798.88;;;6.87;100.00
41886;BME280;27567;43.084;25.616;2023-04-19T06:04:39;97802.81;;;6.91;100.00
41886;BME280;27567;43.084;25.616;2023-04-19T06:07:26;97804.84;;;6.89;100.00
41886;BME280;27567;43.084;25.616;2023-04-19T06:10:10;97809.63;;;6.72;100.00
41886;BME280;27567;43.084;25.616;2023-04-19T06:12:54;97808.41;;;6.75;100.00
41886;BME280;27567;43.084;25.616;2023-04-19T06:15:38;97809.69;;;6.79;100.00
41886;BME280;27567;43.084;25.616;2023-04-19T06:18:23;97821.63;;;6.83;100.00
41886;BME280;27567;43.084;25.616;2023-04-19T06:21:07;97808.16;;;6.70;100.00
41886;BME280;27567;43.084;25.616;2023-04-19T06:23:51;97808.72;;;6.65;100.00
41886;BME280;27567;43.084;25.616;2023-04-19T06:26:35;97822.44;;;6.62;100.00
41886;BME280;27567;43.084;25.616;2023-04-19T06:29:19;97809.38;;;6.67;100.00
41886;BME280;27567;43.084;25.616;2023-04-19T06:32:05;97807.50;;;6.68;100.00
41886;BME280;27567;43.084;25.616;2023-04-19T06:34:49;97833.22;;;6.75;100.00
41886;BME280;27567;43.084;25.616;2023-04-19T06:37:33;97817.91;;;6.62;100.00
41886;BME280;27567;43.084;25.616;2023-04-19T06:40:18;97816.41;;;6.75;100.00
41886;BME280;27567;43.084;25.616;2023-04-19T06:43:02;97822.00;;;7.02;100.00
41886;BME280;27567;43.084;25.616;2023-04-19T06:45:46;97826.25;;;7.18;100.00
41886;BME280;27567;43.084;25.616;2023-04-19T06:48:31;97818.00;;;7.13;100.00
41886;BME280;27567;43.084;25.616;2023-04-19T06:51:16;97826.31;;;7.03;100.00
41886;BME280;27567;43.084;25.616;2023-04-19T06:54:02;97827.19;;;7.10;100.00
41886;BME280;27567;43.084;25.616;2023-04-19T06:56:48;97823.44;;;7.04;100.00
41886;BME280;27567;43.084;25.616;2023-04-19T06:59:32;97832.63;;;7.24;100.00
41886;BME280;27567;43.084;25.616;2023-04-19T07:02:17;97836.06;;;7.17;100.00
41886;BME280;27567;43.084;25.616;2023-04-19T07:05:02;97841.41;;;7.17;100.00
41886;BME280;27567;43.084;25.616;2023-04-19T07:07:46;97853.63;;;7.33;100.00
41886;BME280;27567;43.084;25.616;2023-04-19T07:10:30;97849.31;;;7.32;100.00
41886;BME280;27567;43.084;25.616;2023-04-19T07:13:14;97849.91;;;7.28;100.00
41886;BME280;27567;43.084;25.616;2023-04-19T07:15:58;97846.09;;;7.15;100.00
41886;BME280;27567;43.084;25.616;2023-04-19T07:18:42;97850.03;;;7.19;100.00
41886;BME280;27567;43.084;25.616;2023-04-19T07:21:26;97852.25;;;7.16;100.00
41886;BME280;27567;43.084;25.616;2023-04-19T07:24:15;97846.41;;;7.05;100.00
41886;BME280;27567;43.084;25.616;2023-04-19T07:27:00;97856.25;;;7.05;100.00
41886;BME280;27567;43.084;25.616;2023-04-19T07:29:44;97846.63;;;7.04;100.00
41886;BME280;27567;43.084;25.616;2023-04-19T07:32:29;97854.72;;;6.96;100.00
41886;BME280;27567;43.084;25.616;2023-04-19T07:35:14;97848.91;;;7.07;100.00
41886;BME280;27567;43.084;25.616;2023-04-19T07:37:58;97860.63;;;7.13;100.00
41886;BME280;27567;43.084;25.616;2023-04-19T07:40:42;97867.56;;;7.29;100.00
41886;BME280;27567;43.084;25.616;2023-04-19T07:43:28;97841.78;;;7.14;100.00
41886;BME280;27567;43.084;25.616;2023-04-19T07:46:13;97858.19;;;7.68;100.00
41886;BME280;27567;43.084;25.616;2023-04-19T07:48:59;97856.75;;;7.65;100.00
41886;BME280;27567;43.084;25.616;2023-04-19T07:51:43;97848.50;;;7.60;100.00
41886;BME280;27567;43.084;25.616;2023-04-19T07:54:27;97848.47;;;7.54;100.00
41886;BME280;27567;43.084;25.616;2023-04-19T07:57:11;97855.38;;;7.48;100.00
41886;BME280;27567;43.084;25.616;2023-04-19T07:59:56;97850.94;;;7.55;100.00
41886;BME280;27567;43.084;25.616;2023-04-19T08:02:44;97837.16;;;7.87;100.00
41886;BME280;27567;43.084;25.616;2023-04-19T08:05:29;97831.28;;;7.98;100.00
41886;BME280;27567;43.084;25.616;2023-04-19T08:08:14;97844.13;;;7.81;100.00
41886;BME280;27567;43.084;25.616;2023-04-19T08:10:59;97845.13;;;7.80;100.00
41886;BME280;27567;43.084;25.616;2023-04-19T08:13:45;97829.34;;;7.78;100.00
41886;BME280;27567;43.084;25.616;2023-04-19T08:16:29;97828.66;;;8.05;100.00
41886;BME280;27567;43.084;25.616;2023-04-19T08:19:13;97832.00;;;8.20;100.00
41886;BME280;27567;43.084;25.616;2023-04-19T08:21:57;97839.47;;;8.38;100.00
41886;BME280;27567;43.084;25.616;2023-04-19T08:24:40;97828.06;;;8.58;100.00
41886;BME280;27567;43.084;25.616;2023-04-19T08:27:24;97836.91;;;8.52;100.00
41886;BME280;27567;43.084;25.616;2023-04-19T08:30:10;97828.09;;;8.71;100.00
41886;BME280;27567;43.084;25.616;2023-04-19T08:32:54;97818.22;;;8.79;100.00
41886;BME280;27567;43.084;25.616;2023-04-19T08:35:38;97813.31;;;8.89;100.00
41886;BME280;27567;43.084;25.616;2023-04-19T08:38:25;97810.91;;;9.21;100.00
41886;BME280;27567;43.084;25.616;2023-04-19T08:41:10;97808.81;;;8.96;100.00
41886;BME280;27567;43.084;25.616;2023-04-19T08:43:57;97821.78;;;9.20;100.00
41886;BME280;27567;43.084;25.616;2023-04-19T08:46:43;97825.91;;;9.29;100.00
41886;BME280;27567;43.084;25.616;2023-04-19T08:49:27;97810.69;;;9.23;100.00
41886;BME280;27567;43.084;25.616;2023-04-19T08:52:12;97812.16;;;10.18;100.00
41886;BME280;27567;43.084;25.616;2023-04-19T08:54:56;97798.25;;;10.48;100.00
41886;BME280;27567;43.084;25.616;2023-04-19T08:57:41;97795.13;;;11.40;100.00
41886;BME280;27567;43.084;25.616;2023-04-19T09:00:25;97799.03;;;11.63;100.00
41886;BME280;27567;43.084;25.616;2023-04-19T09:03:09;97793.25;;;12.22;100.00
41886;BME280;27567;43.084;25.616;2023-04-19T09:05:54;97784.47;;;12.76;100.00
41886;BME280;27567;43.084;25.616;2023-04-19T09:08:41;97784.44;;;11.96;100.00
41886;BME280;27567;43.084;25.616;2023-04-19T09:11:37;97799.94;;;11.76;100.00
41886;BME280;27567;43.084;25.616;2023-04-19T09:14:21;97796.06;;;11.71;100.00
41886;BME280;27567;43.084;25.616;2023-04-19T09:17:15;97811.78;;;11.49;100.00
41886;BME280;27567;43.084;25.616;2023-04-19T09:19:59;97815.66;;;11.28;100.00
41886;BME280;27567;43.084;25.616;2023-04-19T09:23:02;97817.25;;;11.80;100.00
41886;BME280;27567;43.084;25.616;2023-04-19T09:25:58;97811.28;;;12.03;100.00
41886;BME280;27567;43.084;25.616;2023-04-19T09:29:07;97821.94;;;11.15;100.00
41886;BME280;27567;43.084;25.616;2023-04-19T09:31:57;97813.81;;;11.72;100.00
41886;BME280;27567;43.084;25.616;2023-04-19T09:34:58;97819.41;;;11.71;100.00
41886;BME280;27567;43.084;25.616;2023-04-19T09:37:57;97822.44;;;11.56;100.00
41886;BME280;27567;43.084;25.616;2023-04-19T09:40:42;97818.03;;;11.62;100.00
41886;BME280;27567;43.084;25.616;2023-04-19T09:43:26;97808.25;;;12.11;100.00
41886;BME280;27567;43.084;25.616;2023-04-19T09:46:33;97809.44;;;12.65;100.00
41886;BME280;27567;43.084;25.616;2023-04-19T09:49:20;97808.41;;;13.50;100.00
41886;BME280;27567;43.084;25.616;2023-04-19T09:52:07;97797.75;;;13.67;100.00
41886;BME280;27567;43.084;25.616;2023-04-19T09:54:53;97810.41;;;13.01;100.00
41886;BME280;27567;43.084;25.616;2023-04-19T09:57:38;97808.41;;;12.96;100.00
41886;BME280;27567;43.084;25.616;2023-04-19T10:00:22;97814.97;;;12.70;100.00
41886;BME280;27567;43.084;25.616;2023-04-19T10:03:08;97811.81;;;13.58;100.00
41886;BME280;27567;43.084;25.616;2023-04-19T10:05:52;97808.41;;;14.39;100.00
41886;BME280;27567;43.084;25.616;2023-04-19T10:08:36;97798.75;;;14.55;100.00
41886;BME280;27567;43.084;25.616;2023-04-19T10:11:21;97810.69;;;14.88;100.00
41886;BME280;27567;43.084;25.616;2023-04-19T10:14:10;97813.66;;;15.03;100.00
41886;BME280;27567;43.084;25.616;2023-04-19T10:16:55;97812.28;;;16.31;100.00
41886;BME280;27567;43.084;25.616;2023-04-19T10:19:39;97824.03;;;15.80;100.00
41886;BME280;27567;43.084;25.616;2023-04-19T10:22:24;97818.25;;;15.54;100.00
41886;BME280;27567;43.084;25.616;2023-04-19T10:25:14;97815.63;;;16.38;100.00
41886;BME280;27567;43.084;25.616;2023-04-19T10:27:58;97818.88;;;19.41;100.00
41886;BME280;27567;43.084;25.616;2023-04-19T10:30:53;97829.78;;;20.58;100.00
41886;BME280;27567;43.084;25.616;2023-04-19T10:33:38;97828.84;;;21.23;100.00
41886;BME280;27567;43.084;25.616;2023-04-19T10:36:26;97823.81;;;21.75;100.00
41886;BME280;27567;43.084;25.616;2023-04-19T10:39:40;97823.47;;;23.51;100.00
41886;BME280;27567;43.084;25.616;2023-04-19T10:45:47;97831.91;;;19.18;100.00
41886;BME280;27567;43.084;25.616;2023-04-19T10:48:33;97832.31;;;16.30;100.00
41886;BME280;27567;43.084;25.616;2023-04-19T10:51:25;97825.91;;;17.08;100.00
41886;BME280;27567;43.084;25.616;2023-04-19T10:54:31;97829.28;;;17.25;100.00
41886;BME280;27567;43.084;25.616;2023-04-19T10:57:15;97834.53;;;15.93;100.00
41886;BME280;27567;43.084;25.616;2023-04-19T11:06:29;97821.25;;;18.96;100.00
41886;BME280;27567;43.084;25.616;2023-04-19T11:09:24;97819.78;;;20.38;100.00
41886;BME280;27567;43.084;25.616;2023-04-19T11:12:11;97815.59;;;19.28;100.00
41886;BME280;27567;43.084;25.616;2023-04-19T11:14:57;97822.91;;;19.74;100.00
41886;BME280;27567;43.084;25.616;2023-04-19T11:17:42;97811.81;;;21.02;100.00
41886;BME280;27567;43.084;25.616;2023-04-19T11:20:26;97815.31;;;19.45;100.00
41886;BME280;27567;43.084;25.616;2023-04-19T11:23:17;97809.00;;;20.78;100.00
41886;BME280;27567;43.084;25.616;2023-04-19T11:26:01;97812.56;;;20.02;100.00
41886;BME280;27567;43.084;25.616;2023-04-19T11:28:46;97815.00;;;20.69;100.00
41886;BME280;27567;43.084;25.616;2023-04-19T11:31:33;97801.84;;;21.61;100.00
41886;BME280;27567;43.084;25.616;2023-04-19T11:34:21;97797.50;;;23.34;94.74
41886;BME280;27567;43.084;25.616;2023-04-19T11:37:05;97792.41;;;23.75;84.81
41886;BME280;27567;43.084;25.616;2023-04-19T11:39:50;97800.31;;;20.60;100.00
41886;BME280;27567;43.084;25.616;2023-04-19T11:42:34;97795.97;;;21.09;100.00
41886;BME280;27567;43.084;25.616;2023-04-19T11:45:32;97786.66;;;22.04;100.00
41886;BME280;27567;43.084;25.616;2023-04-19T11:48:17;97785.28;;;26.08;62.62
41886;BME280;27567;43.084;25.616;2023-04-19T11:51:01;97791.19;;;24.28;69.19
41886;BME280;27567;43.084;25.616;2023-04-19T11:53:46;97789.00;;;21.91;94.65
41886;BME280;27567;43.084;25.616;2023-04-19T11:56:30;97779.97;;;21.67;100.00
41886;BME280;27567;43.084;25.616;2023-04-19T11:59:14;97780.19;;;21.70;100.00
41886;BME280;27567;43.084;25.616;2023-04-19T12:02:09;97776.16;;;21.92;100.00
41886;BME280;27567;43.084;25.616;2023-04-19T12:04:53;97775.03;;;23.37;84.29
41886;BME280;27567;43.084;25.616;2023-04-19T12:08:00;97762.13;;;26.49;59.71
41886;BME280;27567;43.084;25.616;2023-04-19T12:10:56;97755.63;;;27.68;49.40
41886;BME280;27567;43.084;25.616;2023-04-19T12:13:40;97759.97;;;28.17;49.73
41886;BME280;27567;43.084;25.616;2023-04-19T12:16:27;97764.59;;;24.00;66.72
41886;BME280;27567;43.084;25.616;2023-04-19T12:19:16;97765.97;;;20.19;100.00
41886;BME280;27567;43.084;25.616;2023-04-19T12:22:30;97757.03;;;18.38;100.00
41886;BME280;27567;43.084;25.616;2023-04-19T12:25:14;97750.00;;;16.75;100.00
41886;BME280;27567;43.084;25.616;2023-04-19T12:27:59;97760.13;;;15.69;100.00
41886;BME280;27567;43.084;25.616;2023-04-19T12:30:43;97759.19;;;15.24;100.00
41886;BME280;27567;43.084;25.616;2023-04-19T12:33:28;97758.06;;;15.02;100.00
41886;BME280;27567;43.084;25.616;2023-04-19T12:36:12;97749.31;;;14.37;100.00
41886;BME280;27567;43.084;25.616;2023-04-19T12:38:56;97744.81;;;14.14;100.00
41886;BME280;27567;43.084;25.616;2023-04-19T12:41:40;97738.97;;;14.17;100.00
41886;BME280;27567;43.084;25.616;2023-04-19T12:44:24;97744.53;;;14.27;100.00
41886;BME280;27567;43.084;25.616;2023-04-19T12:47:08;97735.66;;;14.27;100.00
41886;BME280;27567;43.084;25.616;2023-04-19T12:49:52;97733.97;;;13.97;100.00
41886;BME280;27567;43.084;25.616;2023-04-19T12:52:39;97736.94;;;14.99;100.00
41886;BME280;27567;43.084;25.616;2023-04-19T12:55:23;97725.25;;;19.83;100.00
41886;BME280;27567;43.084;25.616;2023-04-19T12:58:07;97720.09;;;23.01;86.86
41886;BME280;27567;43.084;25.616;2023-04-19T13:00:51;97720.69;;;20.39;100.00
41886;BME280;27567;43.084;25.616;2023-04-19T13:03:34;97726.47;;;19.10;100.00
41886;BME280;27567;43.084;25.616;2023-04-19T13:06:19;97724.69;;;17.62;100.00
41886;BME280;27567;43.084;25.616;2023-04-19T13:09:03;97727.91;;;17.16;100.00
41886;BME280;27567;43.084;25.616;2023-04-19T13:11:47;97719.13;;;17.36;100.00
41886;BME280;27567;43.084;25.616;2023-04-19T13:14:31;97719.97;;;17.04;100.00
41886;BME280;27567;43.084;25.616;2023-04-19T13:17:15;97722.19;;;16.52;100.00
41886;BME280;27567;43.084;25.616;2023-04-19T13:19:59;97724.72;;;16.64;100.00
41886;BME280;27567;43.084;25.616;2023-04-19T13:22:43;97723.03;;;16.31;100.00
41886;BME280;27567;43.084;25.616;2023-04-19T13:25:27;97716.66;;;16.15;100.00
41886;BME280;27567;43.084;25.616;2023-04-19T13:28:11;97713.53;;;16.01;100.00
41886;BME280;27567;43.084;25.616;2023-04-19T13:30:55;97716.91;;;15.52;100.00
41886;BME280;27567;43.084;25.616;2023-04-19T13:33:39;97708.38;;;18.05;100.00
41886;BME280;27567;43.084;25.616;2023-04-19T13:36:23;97698.59;;;24.16;89.81
41886;BME280;27567;43.084;25.616;2023-04-19T13:39:07;97687.34;;;28.43;59.87
41886;BME280;27567;43.084;25.616;2023-04-19T13:41:52;97688.34;;;30.35;49.46
41886;BME280;27567;43.084;25.616;2023-04-19T13:44:36;97683.88;;;30.30;45.05
41886;BME280;27567;43.084;25.616;2023-04-19T13:47:20;97675.69;;;31.03;43.20
41886;BME280;27567;43.084;25.616;2023-04-19T13:50:04;97674.03;;;31.30;43.32
41886;BME280;27567;43.084;25.616;2023-04-19T13:52:49;97674.84;;;28.24;47.73
41886;BME280;27567;43.084;25.616;2023-04-19T13:55:33;97689.38;;;24.49;61.54
41886;BME280;27567;43.084;25.616;2023-04-19T13:58:17;97687.34;;;20.57;99.40
41886;BME280;27567;43.084;25.616;2023-04-19T14:01:02;97692.19;;;18.57;100.00
41886;BME280;27567;43.084;25.616;2023-04-19T14:03:46;97698.81;;;17.92;100.00
41886;BME280;27567;43.084;25.616;2023-04-19T14:06:30;97697.09;;;16.90;100.00
41886;BME280;27567;43.084;25.616;2023-04-19T14:09:14;97687.78;;;16.20;100.00
41886;BME280;27567;43.084;25.616;2023-04-19T14:11:59;97698.41;;;16.05;100.00
41886;BME280;27567;43.084;25.616;2023-04-19T14:14:44;97692.44;;;15.41;100.00
41886;BME280;27567;43.084;25.616;2023-04-19T14:17:28;97696.75;;;14.69;100.00
41886;BME280;27567;43.084;25.616;2023-04-19T14:20:12;97693.16;;;14.34;100.00
41886;BME280;27567;43.084;25.616;2023-04-19T14:22:58;97697.38;;;14.13;100.00
41886;BME280;27567;43.084;25.616;2023-04-19T14:25:55;97696.13;;;13.92;100.00
41886;BME280;27567;43.084;25.616;2023-04-19T14:28:40;97680.88;;;13.68;100.00
41886;BME280;27567;43.084;25.616;2023-04-19T14:31:24;97690.59;;;13.70;100.00
41886;BME280;27567;43.084;25.616;2023-04-19T14:34:08;97685.47;;;13.44;100.00
41886;BME280;27567;43.084;25.616;2023-04-19T14:36:52;97680.31;;;13.19;100.00